sensor_id;sensor_type;location;lat;lon;timestamp;pressure;altitude;pressure_sealevel;temperature
73734;BMP280;62039;50.000;9.064;2023-03-13T00:01:40;99690.75;;;7.54
73734;BMP280;62039;50.000;9.064;2023-03-13T00:04:07;99690.75;;;7.54
73734;BMP280;62039;50.000;9.064;2023-03-13T00:06:36;99689.13;;;7.53
73734;BMP280;62039;50.000;9.064;2023-03-13T00:09:06;99683.06;;;7.52
73734;BMP280;62039;50.000;9.064;2023-03-13T00:11:33;99674.63;;;7.50
73734;BMP280;62039;50.000;9.064;2023-03-13T00:14:01;99680.78;;;7.49
73734;BMP280;62039;50.000;9.064;2023-03-13T00:16:28;99672.19;;;7.49
73734;BMP280;62039;50.000;9.064;2023-03-13T00:18:57;99677.38;;;7.49
73734;BMP280;62039;50.000;9.064;2023-03-13T00:21:25;99662.75;;;7.48
73734;BMP280;62039;50.000;9.064;2023-03-13T00:23:51;99666.19;;;7.48
73734;BMP280;62039;50.000;9.064;2023-03-13T00:26:21;99662.75;;;7.48
73734;BMP280;62039;50.000;9.064;2023-03-13T00:28:48;99662.09;;;7.45
73734;BMP280;62039;50.000;9.064;2023-03-13T00:31:17;99656.91;;;7.45
73734;BMP280;62039;50.000;9.064;2023-03-13T00:33:45;99657.03;;;7.44
73734;BMP280;62039;50.000;9.064;2023-03-13T00:36:13;99655.25;;;7.44
73734;BMP280;62039;50.000;9.064;2023-03-13T00:38:40;99659.66;;;7.44
73734;BMP280;62039;50.000;9.064;2023-03-13T00:41:09;99650.88;;;7.45
73734;BMP280;62039;50.000;9.064;2023-03-13T00:43:38;99640.50;;;7.45
73734;BMP280;62039;50.000;9.064;2023-03-13T00:46:06;99638.72;;;7.45
73734;BMP280;62039;50.000;9.064;2023-03-13T00:48:33;99636.09;;;7.45
73734;BMP280;62039;50.000;9.064;2023-03-13T00:51:00;99637.06;;;7.44
73734;BMP280;62039;50.000;9.064;2023-03-13T00:53:27;99634.31;;;7.46
73734;BMP280;62039;50.000;9.064;2023-03-13T00:55:55;99626.38;;;7.48
73734;BMP280;62039;50.000;9.064;2023-03-13T00:58:23;99626.38;;;7.48
73734;BMP280;62039;50.000;9.064;2023-03-13T01:00:52;99622.97;;;7.47
73734;BMP280;62039;50.000;9.064;2023-03-13T01:03:20;99611.75;;;7.46
73734;BMP280;62039;50.000;9.064;2023-03-13T01:05:54;99602.31;;;7.45
73734;BMP280;62039;50.000;9.064;2023-03-13T01:08:21;99603.16;;;7.46
73734;BMP280;62039;50.000;9.064;2023-03-13T01:10:47;99593.72;;;7.45
73734;BMP280;62039;50.000;9.064;2023-03-13T01:13:14;99597.13;;;7.45
73734;BMP280;62039;50.000;9.064;2023-03-13T01:15:40;99590.16;;;7.46
73734;BMP280;62039;50.000;9.064;2023-03-13T01:18:08;99575.38;;;7.46
73734;BMP280;62039;50.000;9.064;2023-03-13T01:20:35;99573.75;;;7.45
73734;BMP280;62039;50.000;9.064;2023-03-13T01:23:01;99568.53;;;7.45
73734;BMP280;62039;50.000;9.064;2023-03-13T01:25:28;99571.00;;;7.47
73734;BMP280;62039;50.000;9.064;2023-03-13T01:27:54;99563.34;;;7.45
73734;BMP280;62039;50.000;9.064;2023-03-13T01:30:21;99559.13;;;7.44
73734;BMP280;62039;50.000;9.064;2023-03-13T01:32:47;99559.94;;;7.45
73734;BMP280;62039;50.000;9.064;2023-03-13T01:35:15;99556.38;;;7.46
73734;BMP280;62039;50.000;9.064;2023-03-13T01:37:42;99554.72;;;7.45
73734;BMP280;62039;50.000;9.064;2023-03-13T01:40:10;99545.16;;;7.45
73734;BMP280;62039;50.000;9.064;2023-03-13T01:42:52;99541.75;;;7.45
73734;BMP280;62039;50.000;9.064;2023-03-13T01:45:48;99533.28;;;7.43
73734;BMP280;62039;50.000;9.064;2023-03-13T01:48:16;99529.25;;;7.40
73734;BMP280;62039;50.000;9.064;2023-03-13T01:50:44;99531.16;;;7.38
73734;BMP280;62039;50.000;9.064;2023-03-13T01:53:11;99525.97;;;7.38
73734;BMP280;62039;50.000;9.064;2023-03-13T01:55:37;99520.94;;;7.37
73734;BMP280;62039;50.000;9.064;2023-03-13T01:58:04;99514.91;;;7.36
73734;BMP280;62039;50.000;9.064;2023-03-13T02:00:33;99511.50;;;7.36
73734;BMP280;62039;50.000;9.064;2023-03-13T02:03:05;99505.53;;;7.35
73734;BMP280;62039;50.000;9.064;2023-03-13T02:05:32;99500.31;;;7.35
73734;BMP280;62039;50.000;9.064;2023-03-13T02:08:02;99489.75;;;7.37
73734;BMP280;62039;50.000;9.064;2023-03-13T02:10:30;99487.97;;;7.37
73734;BMP280;62039;50.000;9.064;2023-03-13T02:12:58;99485.22;;;7.39
73734;BMP280;62039;50.000;9.064;2023-03-13T02:15:27;99487.00;;;7.38
73734;BMP280;62039;50.000;9.064;2023-03-13T02:17:55;99477.44;;;7.39
73734;BMP280;62039;50.000;9.064;2023-03-13T02:20:21;99475.63;;;7.39
73734;BMP280;62039;50.000;9.064;2023-03-13T02:22:52;99475.31;;;7.42
73734;BMP280;62039;50.000;9.064;2023-03-13T02:25:33;99476.13;;;7.43
73734;BMP280;62039;50.000;9.064;2023-03-13T02:28:03;99482.13;;;7.43
73734;BMP280;62039;50.000;9.064;2023-03-13T02:30:30;99475.00;;;7.45
73734;BMP280;62039;50.000;9.064;2023-03-13T02:32:57;99470.28;;;7.49
73734;BMP280;62039;50.000;9.064;2023-03-13T02:35:25;99476.94;;;7.52
73734;BMP280;62039;50.000;9.064;2023-03-13T02:37:54;99457.53;;;7.56
73734;BMP280;62039;50.000;9.064;2023-03-13T02:40:24;99458.97;;;7.58
73734;BMP280;62039;50.000;9.064;2023-03-13T02:42:53;99449.88;;;7.62
73734;BMP280;62039;50.000;9.064;2023-03-13T02:45:21;99441.91;;;7.64
73734;BMP280;62039;50.000;9.064;2023-03-13T02:47:48;99434.47;;;7.69
73734;BMP280;62039;50.000;9.064;2023-03-13T02:50:15;99429.72;;;7.72
73734;BMP280;62039;50.000;9.064;2023-03-13T02:52:44;99422.41;;;7.76
73734;BMP280;62039;50.000;9.064;2023-03-13T02:55:14;99422.25;;;7.77
73734;BMP280;62039;50.000;9.064;2023-03-13T02:57:41;99419.19;;;7.82
73734;BMP280;62039;50.000;9.064;2023-03-13T03:00:10;99415.25;;;7.86
73734;BMP280;62039;50.000;9.064;2023-03-13T03:02:37;99406.97;;;7.91
73734;BMP280;62039;50.000;9.064;2023-03-13T03:05:04;99406.47;;;7.95
73734;BMP280;62039;50.000;9.064;2023-03-13T03:07:31;99410.38;;;7.99
73734;BMP280;62039;50.000;9.064;2023-03-13T03:09:57;99405.66;;;8.03
73734;BMP280;62039;50.000;9.064;2023-03-13T03:12:24;99400.94;;;8.06
73734;BMP280;62039;50.000;9.064;2023-03-13T03:14:50;99393.59;;;8.10
73734;BMP280;62039;50.000;9.064;2023-03-13T03:17:18;99397.34;;;8.15
73734;BMP280;62039;50.000;9.064;2023-03-13T03:19:45;99389.19;;;8.18
73734;BMP280;62039;50.000;9.064;2023-03-13T03:22:11;99380.09;;;8.22
73734;BMP280;62039;50.000;9.064;2023-03-13T03:24:38;99382.34;;;8.25
73734;BMP280;62039;50.000;9.064;2023-03-13T03:27:04;99378.09;;;8.24
73734;BMP280;62039;50.000;9.064;2023-03-13T03:29:31;99376.16;;;8.27
73734;BMP280;62039;50.000;9.064;2023-03-13T03:31:57;99365.75;;;8.27
73734;BMP280;62039;50.000;9.064;2023-03-13T03:34:26;99368.34;;;8.27
73734;BMP280;62039;50.000;9.064;2023-03-13T03:36:52;99370.31;;;8.24
73734;BMP280;62039;50.000;9.064;2023-03-13T03:39:19;99375.50;;;8.24
73734;BMP280;62039;50.000;9.064;2023-03-13T03:41:45;99369.31;;;8.25
73734;BMP280;62039;50.000;9.064;2023-03-13T03:44:12;99363.00;;;8.28
73734;BMP280;62039;50.000;9.064;2023-03-13T03:46:38;99358.41;;;8.30
73734;BMP280;62039;50.000;9.064;2023-03-13T03:49:05;99367.69;;;8.33
73734;BMP280;62039;50.000;9.064;2023-03-13T03:51:33;99367.34;;;8.36
73734;BMP280;62039;50.000;9.064;2023-03-13T03:53:59;99370.59;;;8.38
73734;BMP280;62039;50.000;9.064;2023-03-13T03:56:26;99371.22;;;8.40
73734;BMP280;62039;50.000;9.064;2023-03-13T03:58:52;99362.44;;;8.41
73734;BMP280;62039;50.000;9.064;2023-03-13T04:01:19;99367.50;;;8.42
73734;BMP280;62039;50.000;9.064;2023-03-13T04:03:45;99366.31;;;8.45
73734;BMP280;62039;50.000;9.064;2023-03-13T04:06:12;99369.56;;;8.47
73734;BMP280;62039;50.000;9.064;2023-03-13T04:08:40;99366.97;;;8.47
73734;BMP280;62039;50.000;9.064;2023-03-13T04:11:06;99361.78;;;8.47
73734;BMP280;62039;50.000;9.064;2023-03-13T04:13:33;99365.19;;;8.47
73734;BMP280;62039;50.000;9.064;2023-03-13T04:16:05;99350.22;;;8.49
73734;BMP280;62039;50.000;9.064;2023-03-13T04:18:32;99351.81;;;8.50
73734;BMP280;62039;50.000;9.064;2023-03-13T04:20:59;99343.03;;;8.51
73734;BMP280;62039;50.000;9.064;2023-03-13T04:23:26;99344.66;;;8.52
73734;BMP280;62039;50.000;9.064;2023-03-13T04:25:54;99343.53;;;8.55
73734;BMP280;62039;50.000;9.064;2023-03-13T04:28:20;99346.13;;;8.55
73734;BMP280;62039;50.000;9.064;2023-03-13T04:30:47;99338.94;;;8.57
73734;BMP280;62039;50.000;9.064;2023-03-13T04:33:13;99335.34;;;8.58
73734;BMP280;62039;50.000;9.064;2023-03-13T04:35:40;99333.44;;;8.60
73734;BMP280;62039;50.000;9.064;2023-03-13T04:38:07;99330.81;;;8.60
73734;BMP280;62039;50.000;9.064;2023-03-13T04:40:33;99337.31;;;8.64
73734;BMP280;62039;50.000;9.064;2023-03-13T04:43:01;99333.72;;;8.65
73734;BMP280;62039;50.000;9.064;2023-03-13T04:45:28;99331.13;;;8.65
73734;BMP280;62039;50.000;9.064;2023-03-13T04:47:54;99330.16;;;8.66
73734;BMP280;62039;50.000;9.064;2023-03-13T04:50:21;99338.78;;;8.67
73734;BMP280;62039;50.000;9.064;2023-03-13T04:52:47;99325.59;;;8.68
73734;BMP280;62039;50.000;9.064;2023-03-13T04:55:15;99331.44;;;8.70
73734;BMP280;62039;50.000;9.064;2023-03-13T04:57:41;99326.84;;;8.72
73734;BMP280;62039;50.000;9.064;2023-03-13T05:00:10;99322.28;;;8.74
73734;BMP280;62039;50.000;9.064;2023-03-13T05:02:37;99319.69;;;8.74
73734;BMP280;62039;50.000;9.064;2023-03-13T05:05:04;99309.09;;;8.76
73734;BMP280;62039;50.000;9.064;2023-03-13T05:07:30;99317.53;;;8.78
73734;BMP280;62039;50.000;9.064;2023-03-13T05:09:57;99301.75;;;8.79
73734;BMP280;62039;50.000;9.064;2023-03-13T05:12:23;99292.63;;;8.83
73734;BMP280;62039;50.000;9.064;2023-03-13T05:14:50;99286.41;;;8.84
73734;BMP280;62039;50.000;9.064;2023-03-13T05:17:18;99300.06;;;8.86
73734;BMP280;62039;50.000;9.064;2023-03-13T05:19:44;99290.31;;;8.88
73734;BMP280;62039;50.000;9.064;2023-03-13T05:22:11;99290.91;;;8.90
73734;BMP280;62039;50.000;9.064;2023-03-13T05:24:37;99276.91;;;8.91
73734;BMP280;62039;50.000;9.064;2023-03-13T05:27:07;99274.16;;;8.93
73734;BMP280;62039;50.000;9.064;2023-03-13T05:29:34;99281.78;;;8.94
73734;BMP280;62039;50.000;9.064;2023-03-13T05:32:00;99269.75;;;8.93
73734;BMP280;62039;50.000;9.064;2023-03-13T05:34:28;99266.81;;;8.96
73734;BMP280;62039;50.000;9.064;2023-03-13T05:36:55;99269.41;;;8.96
73734;BMP280;62039;50.000;9.064;2023-03-13T05:39:21;99263.84;;;8.99
73734;BMP280;62039;50.000;9.064;2023-03-13T05:41:48;99255.84;;;9.01
73734;BMP280;62039;50.000;9.064;2023-03-13T05:44:15;99240.06;;;9.02
73734;BMP280;62039;50.000;9.064;2023-03-13T05:46:41;99249.13;;;9.07
73734;BMP280;62039;50.000;9.064;2023-03-13T05:49:08;99249.13;;;9.07
73734;BMP280;62039;50.000;9.064;2023-03-13T05:51:36;99241.16;;;9.08
73734;BMP280;62039;50.000;9.064;2023-03-13T05:54:02;99241.16;;;9.08
73734;BMP280;62039;50.000;9.064;2023-03-13T05:56:29;99246.19;;;9.10
73734;BMP280;62039;50.000;9.064;2023-03-13T05:58:55;99236.38;;;9.12
73734;BMP280;62039;50.000;9.064;2023-03-13T06:01:22;99251.03;;;9.13
73734;BMP280;62039;50.000;9.064;2023-03-13T06:03:48;99242.22;;;9.14
73734;BMP280;62039;50.000;9.064;2023-03-13T06:06:15;99242.88;;;9.16
73734;BMP280;62039;50.000;9.064;2023-03-13T06:08:43;99246.09;;;9.18
73734;BMP280;62039;50.000;9.064;2023-03-13T06:11:10;99245.09;;;9.19
73734;BMP280;62039;50.000;9.064;2023-03-13T06:13:36;99249.16;;;9.21
73734;BMP280;62039;50.000;9.064;2023-03-13T06:16:04;99245.59;;;9.22
73734;BMP280;62039;50.000;9.064;2023-03-13T06:18:30;99235.00;;;9.24
73734;BMP280;62039;50.000;9.064;2023-03-13T06:20:59;99226.00;;;9.26
73734;BMP280;62039;50.000;9.064;2023-03-13T06:23:26;99204.16;;;9.27
73734;BMP280;62039;50.000;9.064;2023-03-13T06:25:54;99208.38;;;9.28
73734;BMP280;62039;50.000;9.064;2023-03-13T06:28:21;99220.22;;;9.31
73734;BMP280;62039;50.000;9.064;2023-03-13T06:30:47;99211.25;;;9.33
73734;BMP280;62039;50.000;9.064;2023-03-13T06:33:14;99201.47;;;9.35
73734;BMP280;62039;50.000;9.064;2023-03-13T06:35:41;99203.91;;;9.37
73734;BMP280;62039;50.000;9.064;2023-03-13T06:38:22;99210.72;;;9.38
73734;BMP280;62039;50.000;9.064;2023-03-13T06:40:48;99216.56;;;9.40
73734;BMP280;62039;50.000;9.064;2023-03-13T06:43:17;99214.44;;;9.43
73734;BMP280;62039;50.000;9.064;2023-03-13T06:45:44;99207.41;;;9.44
73734;BMP280;62039;50.000;9.064;2023-03-13T06:48:10;99209.66;;;9.47
73734;BMP280;62039;50.000;9.064;2023-03-13T06:50:37;99214.69;;;9.49
73734;BMP280;62039;50.000;9.064;2023-03-13T06:53:04;99205.69;;;9.51
73734;BMP280;62039;50.000;9.064;2023-03-13T06:55:31;99214.78;;;9.55
73734;BMP280;62039;50.000;9.064;2023-03-13T06:57:57;99206.78;;;9.57
73734;BMP280;62039;50.000;9.064;2023-03-13T07:00:25;99208.88;;;9.61
73734;BMP280;62039;50.000;9.064;2023-03-13T07:02:52;99193.06;;;9.63
73734;BMP280;62039;50.000;9.064;2023-03-13T07:05:18;99204.75;;;9.67
73734;BMP280;62039;50.000;9.064;2023-03-13T07:07:45;99206.00;;;9.71
73734;BMP280;62039;50.000;9.064;2023-03-13T07:10:11;99207.44;;;9.73
73734;BMP280;62039;50.000;9.064;2023-03-13T07:12:38;99197.47;;;9.77
73734;BMP280;62039;50.000;9.064;2023-03-13T07:15:06;99187.63;;;9.79
73734;BMP280;62039;50.000;9.064;2023-03-13T07:17:34;99188.09;;;9.83
73734;BMP280;62039;50.000;9.064;2023-03-13T07:20:00;99198.34;;;9.84
73734;BMP280;62039;50.000;9.064;2023-03-13T07:22:27;99190.97;;;9.88
73734;BMP280;62039;50.000;9.064;2023-03-13T07:24:54;99192.03;;;9.93
73734;BMP280;62039;50.000;9.064;2023-03-13T07:27:20;99188.06;;;9.97
73734;BMP280;62039;50.000;9.064;2023-03-13T07:29:47;99196.31;;;10.01
73734;BMP280;62039;50.000;9.064;2023-03-13T07:32:14;99198.38;;;10.05
73734;BMP280;62039;50.000;9.064;2023-03-13T07:34:42;99212.69;;;10.09
73734;BMP280;62039;50.000;9.064;2023-03-13T07:37:09;99212.31;;;10.12
73734;BMP280;62039;50.000;9.064;2023-03-13T07:39:35;99217.97;;;10.16
73734;BMP280;62039;50.000;9.064;2023-03-13T07:42:02;99217.59;;;10.19
73734;BMP280;62039;50.000;9.064;2023-03-13T07:44:29;99219.69;;;10.24
73734;BMP280;62039;50.000;9.064;2023-03-13T07:46:58;99214.72;;;10.29
73734;BMP280;62039;50.000;9.064;2023-03-13T07:49:26;99228.19;;;10.32
73734;BMP280;62039;50.000;9.064;2023-03-13T07:51:54;99229.44;;;10.36
73734;BMP280;62039;50.000;9.064;2023-03-13T07:54:20;99230.09;;;10.38
73734;BMP280;62039;50.000;9.064;2023-03-13T07:56:47;99234.91;;;10.41
73734;BMP280;62039;50.000;9.064;2023-03-13T07:59:13;99230.31;;;10.43
73734;BMP280;62039;50.000;9.064;2023-03-13T08:01:40;99230.16;;;10.45
73734;BMP280;62039;50.000;9.064;2023-03-13T08:04:08;99234.97;;;10.48
73734;BMP280;62039;50.000;9.064;2023-03-13T08:06:38;99239.84;;;10.51
73734;BMP280;62039;50.000;9.064;2023-03-13T08:09:06;99233.44;;;10.53
73734;BMP280;62039;50.000;9.064;2023-03-13T08:11:32;99239.31;;;10.55
73734;BMP280;62039;50.000;9.064;2023-03-13T08:13:59;99253.81;;;10.58
73734;BMP280;62039;50.000;9.064;2023-03-13T08:16:27;99245.59;;;10.61
73734;BMP280;62039;50.000;9.064;2023-03-13T08:18:55;99240.00;;;10.64
73734;BMP280;62039;50.000;9.064;2023-03-13T08:21:23;99242.41;;;10.66
73734;BMP280;62039;50.000;9.064;2023-03-13T08:23:52;99237.19;;;10.66
73734;BMP280;62039;50.000;9.064;2023-03-13T08:26:22;99229.81;;;10.69
73734;BMP280;62039;50.000;9.064;2023-03-13T08:28:51;99231.25;;;10.72
73734;BMP280;62039;50.000;9.064;2023-03-13T08:31:21;99235.09;;;10.76
73734;BMP280;62039;50.000;9.064;2023-03-13T08:33:48;99248.97;;;10.76
73734;BMP280;62039;50.000;9.064;2023-03-13T08:36:16;99235.72;;;10.78
73734;BMP280;62039;50.000;9.064;2023-03-13T08:38:43;99236.31;;;10.80
73734;BMP280;62039;50.000;9.064;2023-03-13T08:41:12;99242.00;;;10.83
73734;BMP280;62039;50.000;9.064;2023-03-13T08:43:41;99250.25;;;10.87
73734;BMP280;62039;50.000;9.064;2023-03-13T08:46:08;99248.25;;;10.89
73734;BMP280;62039;50.000;9.064;2023-03-13T08:48:34;99251.13;;;10.94
73734;BMP280;62039;50.000;9.064;2023-03-13T08:51:02;99247.16;;;10.98
73734;BMP280;62039;50.000;9.064;2023-03-13T08:53:30;99231.06;;;11.01
73734;BMP280;62039;50.000;9.064;2023-03-13T08:55:57;99228.69;;;11.06
73734;BMP280;62039;50.000;9.064;2023-03-13T08:58:24;99227.34;;;11.10
73734;BMP280;62039;50.000;9.064;2023-03-13T09:00:52;99227.97;;;11.12
73734;BMP280;62039;50.000;9.064;2023-03-13T09:03:18;99210.28;;;11.14
73734;BMP280;62039;50.000;9.064;2023-03-13T09:05:45;99212.69;;;11.16
73734;BMP280;62039;50.000;9.064;2023-03-13T09:08:21;99212.50;;;11.17
73734;BMP280;62039;50.000;9.064;2023-03-13T09:10:54;99215.13;;;11.17
73734;BMP280;62039;50.000;9.064;2023-03-13T09:13:21;99212.69;;;11.16
73734;BMP280;62039;50.000;9.064;2023-03-13T09:15:54;99221.16;;;11.18
73734;BMP280;62039;50.000;9.064;2023-03-13T09:18:20;99205.50;;;11.18
73734;BMP280;62039;50.000;9.064;2023-03-13T09:20:47;99213.13;;;11.19
73734;BMP280;62039;50.000;9.064;2023-03-13T09:23:14;99206.72;;;11.22
73734;BMP280;62039;50.000;9.064;2023-03-13T09:25:41;99206.53;;;11.23
73734;BMP280;62039;50.000;9.064;2023-03-13T09:28:07;99204.53;;;11.25
73734;BMP280;62039;50.000;9.064;2023-03-13T09:30:34;99210.34;;;11.27
73734;BMP280;62039;50.000;9.064;2023-03-13T09:33:02;99194.31;;;11.30
73734;BMP280;62039;50.000;9.064;2023-03-13T09:35:29;99191.28;;;11.33
73734;BMP280;62039;50.000;9.064;2023-03-13T09:37:55;99185.69;;;11.36
73734;BMP280;62039;50.000;9.064;2023-03-13T09:40:24;99186.91;;;11.40
73734;BMP280;62039;50.000;9.064;2023-03-13T09:42:53;99182.31;;;11.43
73734;BMP280;62039;50.000;9.064;2023-03-13T09:45:28;99188.97;;;11.45
73734;BMP280;62039;50.000;9.064;2023-03-13T09:47:58;99176.34;;;11.49
73734;BMP280;62039;50.000;9.064;2023-03-13T09:50:31;99168.72;;;11.54
73734;BMP280;62039;50.000;9.064;2023-03-13T09:53:03;99161.47;;;11.56
73734;BMP280;62039;50.000;9.064;2023-03-13T09:55:32;99161.91;;;11.59
73734;BMP280;62039;50.000;9.064;2023-03-13T09:58:03;99142.22;;;11.63
73734;BMP280;62039;50.000;9.064;2023-03-13T10:00:36;99147.06;;;11.66
73734;BMP280;62039;50.000;9.064;2023-03-13T10:03:06;99142.22;;;11.70
73734;BMP280;62039;50.000;9.064;2023-03-13T10:05:45;99131.00;;;11.76
73734;BMP280;62039;50.000;9.064;2023-03-13T10:08:15;99146.31;;;11.79
73734;BMP280;62039;50.000;9.064;2023-03-13T10:10:46;99135.44;;;11.82
73734;BMP280;62039;50.000;9.064;2023-03-13T10:13:18;99146.72;;;11.89
73734;BMP280;62039;50.000;9.064;2023-03-13T10:15:50;99145.34;;;11.93
73734;BMP280;62039;50.000;9.064;2023-03-13T10:18:19;99139.31;;;11.99
73734;BMP280;62039;50.000;9.064;2023-03-13T10:20:48;99146.56;;;12.04
73734;BMP280;62039;50.000;9.064;2023-03-13T10:23:19;99152.81;;;12.09
73734;BMP280;62039;50.000;9.064;2023-03-13T10:25:46;99145.16;;;12.14
73734;BMP280;62039;50.000;9.064;2023-03-13T10:28:14;99139.13;;;12.21
73734;BMP280;62039;50.000;9.064;2023-03-13T10:30:45;99166.56;;;12.25
73734;BMP280;62039;50.000;9.064;2023-03-13T10:33:18;99139.16;;;12.27
73734;BMP280;62039;50.000;9.064;2023-03-13T10:35:59;99140.38;;;12.31
73734;BMP280;62039;50.000;9.064;2023-03-13T10:38:26;99147.06;;;12.34
73734;BMP280;62039;50.000;9.064;2023-03-13T10:40:56;99146.28;;;12.40
73734;BMP280;62039;50.000;9.064;2023-03-13T10:43:24;99139.63;;;12.44
73734;BMP280;62039;50.000;9.064;2023-03-13T10:45:51;99135.56;;;12.48
73734;BMP280;62039;50.000;9.064;2023-03-13T10:48:20;99141.44;;;12.50
73734;BMP280;62039;50.000;9.064;2023-03-13T10:50:49;99131.38;;;12.53
73734;BMP280;62039;50.000;9.064;2023-03-13T10:53:22;99138.81;;;12.56
73734;BMP280;62039;50.000;9.064;2023-03-13T10:55:51;99132.97;;;12.61
73734;BMP280;62039;50.000;9.064;2023-03-13T10:58:22;99131.56;;;12.65
73734;BMP280;62039;50.000;9.064;2023-03-13T11:00:49;99124.09;;;12.69
73734;BMP280;62039;50.000;9.064;2023-03-13T11:03:17;99123.50;;;12.73
73734;BMP280;62039;50.000;9.064;2023-03-13T11:05:55;99117.03;;;12.76
73734;BMP280;62039;50.000;9.064;2023-03-13T11:08:24;99113.22;;;12.78
73734;BMP280;62039;50.000;9.064;2023-03-13T11:10:58;99120.66;;;12.81
73734;BMP280;62039;50.000;9.064;2023-03-13T11:13:28;99107.16;;;12.84
73734;BMP280;62039;50.000;9.064;2023-03-13T11:16:12;99104.16;;;12.87
73734;BMP280;62039;50.000;9.064;2023-03-13T11:18:53;99092.84;;;12.93
73734;BMP280;62039;50.000;9.064;2023-03-13T11:21:32;99097.25;;;13.00
73734;BMP280;62039;50.000;9.064;2023-03-13T11:24:06;99088.38;;;13.07
73734;BMP280;62039;50.000;9.064;2023-03-13T11:26:36;99077.88;;;13.14
73734;BMP280;62039;50.000;9.064;2023-03-13T11:29:08;99085.50;;;13.22
73734;BMP280;62039;50.000;9.064;2023-03-13T11:31:46;99077.63;;;13.28
73734;BMP280;62039;50.000;9.064;2023-03-13T11:34:20;99070.78;;;13.34
73734;BMP280;62039;50.000;9.064;2023-03-13T11:36:52;99070.13;;;13.39
73734;BMP280;62039;50.000;9.064;2023-03-13T11:39:42;99066.06;;;13.43
73734;BMP280;62039;50.000;9.064;2023-03-13T11:42:23;99056.59;;;13.48
73734;BMP280;62039;50.000;9.064;2023-03-13T11:45:00;99055.94;;;13.53
73734;BMP280;62039;50.000;9.064;2023-03-13T11:47:38;99037.16;;;13.56
73734;BMP280;62039;50.000;9.064;2023-03-13T11:50:12;99037.56;;;13.59
73734;BMP280;62039;50.000;9.064;2023-03-13T11:52:51;99028.03;;;13.65
73734;BMP280;62039;50.000;9.064;2023-03-13T11:55:39;99028.44;;;13.68
73734;BMP280;62039;50.000;9.064;2023-03-13T11:58:31;99024.34;;;13.72
73734;BMP280;62039;50.000;9.064;2023-03-13T12:01:07;99017.91;;;13.75
73734;BMP280;62039;50.000;9.064;2023-03-13T12:03:38;99016.66;;;13.78
73734;BMP280;62039;50.000;9.064;2023-03-13T12:06:14;98999.69;;;13.80
73734;BMP280;62039;50.000;9.064;2023-03-13T12:08:59;98989.56;;;13.84
73734;BMP280;62039;50.000;9.064;2023-03-13T12:11:30;98982.88;;;13.88
73734;BMP280;62039;50.000;9.064;2023-03-13T12:14:01;98986.69;;;13.92
73734;BMP280;62039;50.000;9.064;2023-03-13T12:16:38;98984.22;;;13.97
73734;BMP280;62039;50.000;9.064;2023-03-13T12:19:10;98976.75;;;14.00
73734;BMP280;62039;50.000;9.064;2023-03-13T12:21:41;98968.44;;;14.03
73734;BMP280;62039;50.000;9.064;2023-03-13T12:24:20;98954.88;;;14.06
73734;BMP280;62039;50.000;9.064;2023-03-13T12:26:51;98962.31;;;14.09
73734;BMP280;62039;50.000;9.064;2023-03-13T12:29:27;98959.28;;;14.12
73734;BMP280;62039;50.000;9.064;2023-03-13T12:32:01;98960.69;;;14.15
73734;BMP280;62039;50.000;9.064;2023-03-13T12:34:33;98954.16;;;14.18
73734;BMP280;62039;50.000;9.064;2023-03-13T12:37:07;98946.09;;;14.19
73734;BMP280;62039;50.000;9.064;2023-03-13T12:39:40;98938.56;;;14.23
73734;BMP280;62039;50.000;9.064;2023-03-13T12:42:16;98934.72;;;14.25
73734;BMP280;62039;50.000;9.064;2023-03-13T12:44:45;98906.41;;;14.27
73734;BMP280;62039;50.000;9.064;2023-03-13T12:47:16;98908.16;;;14.33
73734;BMP280;62039;50.000;9.064;2023-03-13T12:50:23;98907.50;;;14.38
73734;BMP280;62039;50.000;9.064;2023-03-13T12:53:29;98890.88;;;14.44
73734;BMP280;62039;50.000;9.064;2023-03-13T12:56:12;98883.06;;;14.56
73734;BMP280;62039;50.000;9.064;2023-03-13T12:58:47;98890.78;;;14.69
73734;BMP280;62039;50.000;9.064;2023-03-13T13:01:24;98855.69;;;14.81
73734;BMP280;62039;50.000;9.064;2023-03-13T13:03:58;98855.72;;;14.93
73734;BMP280;62039;50.000;9.064;2023-03-13T13:06:27;98853.94;;;15.05
73734;BMP280;62039;50.000;9.064;2023-03-13T13:09:07;98857.38;;;15.17
73734;BMP280;62039;50.000;9.064;2023-03-13T13:11:44;98850.56;;;15.28
73734;BMP280;62039;50.000;9.064;2023-03-13T13:17:18;98824.84;;;15.42
73734;BMP280;62039;50.000;9.064;2023-03-13T13:19:47;98816.41;;;15.51
73734;BMP280;62039;50.000;9.064;2023-03-13T13:22:45;98814.47;;;15.58
73734;BMP280;62039;50.000;9.064;2023-03-13T13:25:32;98805.09;;;15.62
73734;BMP280;62039;50.000;9.064;2023-03-13T13:28:24;98798.56;;;15.65
73734;BMP280;62039;50.000;9.064;2023-03-13T13:30:53;98801.06;;;15.72
73734;BMP280;62039;50.000;9.064;2023-03-13T13:33:36;98791.81;;;15.81
73734;BMP280;62039;50.000;9.064;2023-03-13T13:36:29;98791.69;;;15.87
73734;BMP280;62039;50.000;9.064;2023-03-13T13:38:57;98785.03;;;15.96
73734;BMP280;62039;50.000;9.064;2023-03-13T13:41:38;98770.00;;;16.08
73734;BMP280;62039;50.000;9.064;2023-03-13T13:44:27;98754.19;;;16.20
73734;BMP280;62039;50.000;9.064;2023-03-13T13:46:56;98753.91;;;16.33
73734;BMP280;62039;50.000;9.064;2023-03-13T13:49:29;98741.25;;;16.47
73734;BMP280;62039;50.000;9.064;2023-03-13T13:55:30;98719.56;;;16.73
73734;BMP280;62039;50.000;9.064;2023-03-13T13:57:59;98720.28;;;16.85
73734;BMP280;62039;50.000;9.064;2023-03-13T14:00:35;98708.41;;;17.00
73734;BMP280;62039;50.000;9.064;2023-03-13T14:03:17;98710.72;;;17.13
73734;BMP280;62039;50.000;9.064;2023-03-13T14:05:50;98705.63;;;17.23
73734;BMP280;62039;50.000;9.064;2023-03-13T14:08:20;98692.81;;;17.32
73734;BMP280;62039;50.000;9.064;2023-03-13T14:10:53;98685.75;;;17.37
73734;BMP280;62039;50.000;9.064;2023-03-13T14:13:21;98681.59;;;17.41
73734;BMP280;62039;50.000;9.064;2023-03-13T14:15:50;98667.91;;;17.44
73734;BMP280;62039;50.000;9.064;2023-03-13T14:18:22;98655.00;;;17.48
73734;BMP280;62039;50.000;9.064;2023-03-13T14:20:54;98643.41;;;17.49
73734;BMP280;62039;50.000;9.064;2023-03-13T14:23:32;98646.84;;;17.49
73734;BMP280;62039;50.000;9.064;2023-03-13T14:26:08;98641.03;;;17.47
73734;BMP280;62039;50.000;9.064;2023-03-13T14:28:38;98627.81;;;17.47
73734;BMP280;62039;50.000;9.064;2023-03-13T14:31:06;98623.59;;;17.46
73734;BMP280;62039;50.000;9.064;2023-03-13T14:33:33;98618.81;;;17.43
73734;BMP280;62039;50.000;9.064;2023-03-13T14:36:01;98617.22;;;17.42
73734;BMP280;62039;50.000;9.064;2023-03-13T14:38:28;98606.38;;;17.39